• Join FlightAware (Why Join?)
  • Login
  • US Flag 
12:10AM EST


 

Airport Tracker/Info


-or-


 

Live Flight TrackerFlight Track Log ✈ DAL6196 ✈ 18-May-2014 ✈ KLGA - KBNA

Flight Track Log - Related Links

Times and Time Zones

All times are in EDT time to prevent confusion due to time zone crossing. See the DAL6196 flight status page for this flight to view local times or setup timezone preferences in your user account.

Time Position Orientation Groundspeed Altitude Reporting Facility
EDT Latitude Longitude Course Direction KTS MPH feet Rate Location/Type
04:54PM 40.8397 -73.8733 314° West 191 220 2,700  Level New York Center
04:55PM 40.8833 -73.9333 314° West 245 282 5,200 2,880 Climbing New York TRACON
04:56PM 40.8667 -74.0333 258° West 266 306 8,500 3,000 Climbing New York TRACON
04:57PM 40.8500 -74.1333 258° West 268 308 11,300 2,220 Climbing New York TRACON
04:58PM 40.8333 -74.2333 258° West 308 354 13,000 1,860 Climbing New York TRACON
05:00PM 40.7961 -74.4442 257° West 320 368 17,000 1,560 Climbing New York Center
05:01PM 40.7731 -74.5828 258° West 342 394 17,800 1,020 Climbing New York Center
05:02PM 40.7503 -74.7072 256° West 371 427 19,100 1,380 Climbing New York Center
05:03PM 40.7269 -74.8431 257° West 385 443 20,600 1,440 Climbing New York Center
05:04PM 40.7011 -74.9783 256° West 390 449 22,000 1,320 Climbing New York Center
05:05PM 40.6650 -75.1156 251° West 390 449 23,300 1,260 Climbing New York Center
05:06PM 40.6103 -75.2378 239° Southwest 390 449 24,600 1,260 Climbing New York Center
05:08PM 40.4922 -75.4922 239° Southwest 408 470 27,300 1,260 Climbing New York Center
05:09PM 40.4369 -75.6194 240° Southwest 408 470 28,500 1,020 Climbing New York Center
05:10PM 40.3797 -75.7433 239° Southwest 413 475 29,400 900 Climbing New York Center
05:11PM 40.3178 -75.8750 238° Southwest 413 475 30,300 900 Climbing New York Center
05:12PM 40.2469 -76.0167 237° Southwest 419 482 31,300 900 Climbing New York Center
05:13PM 40.1869 -76.1481 239° Southwest 419 482 32,200 840 Climbing New York Center
05:14PM 40.1336 -76.2661 239° Southwest 414 476 33,000 840 Climbing New York Center
05:15PM 40.0753 -76.3944 239° Southwest 414 476 33,900 900 Climbing New York Center
05:16PM 40.0172 -76.5200 239° Southwest 414 476 34,800 900 Climbing New York Center
05:18PM 39.9181 -76.7269 238° Southwest 405 466 36,300 720 Climbing Washington Center
05:19PM 39.8556 -76.8633 239° Southwest 404 465 36,900 480 Climbing Washington Center
05:20PM 39.7967 -76.9875 238° Southwest 404 465 37,400 480 Climbing Washington Center
05:21PM 39.7381 -77.1114 238° Southwest 404 465 37,900 240 Climbing Washington Center
05:22PM 39.6797 -77.2375 239° Southwest 405 466 38,000  Climbing Washington Center
05:23PM 39.6178 -77.3653 238° Southwest 416 479 38,000  Level Washington Center
05:24PM 39.5558 -77.4953 238° Southwest 422 486 38,000  Level Washington Center
05:25PM 39.4811 -77.6519 238° Southwest 428 493 38,000  Level Washington Center
05:26PM 39.4169 -77.7825 238° Southwest 429 494 38,000  Level Washington Center
05:27PM 39.3597 -77.9147 241° Southwest 428 493 38,000  Level Washington Center
05:28PM 39.3069 -78.0486 243° Southwest 422 486 38,000  Level Washington Center
05:29PM 39.2425 -78.2103 243° Southwest 422 486 38,000  Level Washington Center
05:30PM 39.1886 -78.3433 242° Southwest 422 486 38,000  Level Washington Center
05:31PM 39.1336 -78.4794 243° Southwest 425 489 38,000  Level Washington Center
05:32PM 39.0792 -78.6136 242° Southwest 425 489 38,000  Level Washington Center
05:33PM 39.0253 -78.7467 242° Southwest 424 488 38,000  Level Washington Center
05:34PM 38.9706 -78.8803 242° Southwest 424 488 38,000  Level Washington Center
05:35PM 38.9050 -79.0406 242° Southwest 424 488 38,000  Level Washington Center
05:36PM 38.8506 -79.1756 243° Southwest 424 488 38,000  Level Washington Center
05:37PM 38.8189 -79.3192 254° West 425 489 38,000  Level Washington Center
05:38PM 38.7936 -79.4667 258° West 423 487 38,000  Level Washington Center
05:39PM 38.7639 -79.6253 257° West 423 487 38,000  Level Washington Center
05:40PM 38.7369 -79.7678 256° West 423 487 38,000  Level Washington Center
05:41PM 38.7139 -79.8969 257° West 423 487 38,000  Level Indianapolis Center
05:42PM 38.6797 -80.0753 256° West 427 491 38,000  Level Indianapolis Center
05:43PM 38.6506 -80.2258 256° West 432 497 38,000  Level Indianapolis Center
05:44PM 38.6231 -80.3744 257° West 432 497 38,000  Level Indianapolis Center
05:45PM 38.5956 -80.5233 257° West 432 497 38,000  Level Indianapolis Center
05:47PM 38.5664 -80.6731 256° West 432 497 38,000  Level Indianapolis Center
05:48PM 38.5372 -80.8217 256° West 432 497 38,000  Level Indianapolis Center
05:49PM 38.5089 -80.9683 256° West 430 495 38,000  Level Indianapolis Center
05:50PM 38.4744 -81.1444 256° West 428 493 38,000  Level Indianapolis Center
05:51PM 38.4456 -81.2908 256° West 424 488 38,000  Level Indianapolis Center
05:52PM 38.4153 -81.4372 255° West 424 488 38,000  Level Indianapolis Center
05:53PM 38.3864 -81.5847 256° West 424 488 38,000  Level Indianapolis Center
05:54PM 38.3572 -81.7311 256° West 424 488 38,000  Level Indianapolis Center
05:55PM 38.3206 -81.8753 252° West 424 488 38,000  Level Indianapolis Center
05:56PM 38.2803 -82.0183 250° West 425 489 38,000  Level Indianapolis Center
05:57PM 38.2394 -82.1606 250° West 425 489 38,000  Level Indianapolis Center
05:58PM 38.1914 -82.3308 250° West 425 489 38,000  Level Indianapolis Center
05:59PM 38.1511 -82.4725 250° West 426 490 38,000  Level Indianapolis Center
06:00PM 38.1083 -82.6231 250° West 426 490 38,000  Level Indianapolis Center
06:01PM 38.0678 -82.7642 250° West 426 490 38,000  Level Indianapolis Center
06:02PM 38.0144 -82.8994 243° Southwest 430 495 38,000 -60 Level Indianapolis Center
06:03PM 37.9500 -83.0308 238° Southwest 436 502 37,900 -480 Descending Indianapolis Center
06:04PM 37.8853 -83.1647 239° Southwest 443 510 37,000 -900 Descending Indianapolis Center
06:05PM 37.8086 -83.3206 238° Southwest 446 513 36,100 -960 Descending Indianapolis Center
06:06PM 37.7439 -83.4517 238° Southwest 445 512 35,100 -1,020 Descending Indianapolis Center
06:07PM 37.6792 -83.5822 238° Southwest 444 511 34,100 -540 Descending Indianapolis Center
06:08PM 37.6142 -83.7133 238° Southwest 444 511 34,000 -60 Descending Indianapolis Center
06:09PM 37.5478 -83.8447 238° Southwest 444 511 34,000 -420 Level Indianapolis Center
06:10PM 37.4708 -83.9983 238° Southwest 444 511 33,200 -780 Descending Indianapolis Center
06:11PM 37.4069 -84.1289 238° Southwest 444 511 32,400 -600 Descending Indianapolis Center
06:12PM 37.3397 -84.2589 237° Southwest 444 511 32,000 -540 Descending Indianapolis Center
06:13PM 37.2717 -84.3917 237° Southwest 445 512 31,300 -900 Descending Indianapolis Center
06:14PM 37.2047 -84.5236 238° Southwest 448 516 30,200 -1,200 Descending Indianapolis Center
06:16PM 37.1278 -84.6739 237° Southwest 444 511 28,900 -1,200 Descending Indianapolis Center
06:17PM 37.0650 -84.7997 238° Southwest 431 496 27,800 -1,080 Descending Indianapolis Center
06:18PM 36.9922 -84.9381 237° Southwest 433 498 26,700 -1,020 Descending Indianapolis Center
06:19PM 36.9264 -85.0653 237° Southwest 438 504 25,700 -1,020 Descending Indianapolis Center
06:20PM 36.8594 -85.1919 237° Southwest 438 504 24,700 -1,020 Descending Indianapolis Center
06:21PM 36.7947 -85.3169 237° Southwest 436 502 23,700 -1,260 Descending Indianapolis Center
06:22PM 36.7314 -85.4403 237° Southwest 430 495 22,200 -1,260 Descending Indianapolis Center
06:23PM 36.6647 -85.5842 240° Southwest 406 467 21,200 -1,140 Descending Indianapolis Center
06:23PM 36.6314 -85.6567 240° Southwest 405 466 20,300 -1,500 Descending Memphis Center
06:24PM 36.5739 -85.7764 239° Southwest 405 466 18,600 -1,620 Descending Memphis Center
06:26PM 36.5169 -85.8969 240° Southwest 390 449 17,000 -1,620 Descending Memphis Center
06:27PM 36.4631 -86.0086 239° Southwest 379 436 15,300 -1,680 Descending Memphis Center
06:28PM 36.4089 -86.1233 240° Southwest 379 436 13,500 -1,920 Descending Memphis Center
06:29PM 36.3489 -86.2456 239° Southwest 356 410 11,400 -1,740 Descending Memphis Center
06:30PM 36.3061 -86.3353 239° Southwest 314 361 10,000 -1,320 Descending Memphis Center
06:31PM 36.2681 -86.4153 239° Southwest 276 318 8,700 -1,260 Descending Memphis Center
06:32PM 36.2308 -86.4908 239° Southwest 260 299 7,400 -1,260 Descending Memphis Center
06:33PM 36.1750 -86.5347 212° Southwest 247 284 6,100 -1,200 Descending Memphis Center
06:34PM 36.1128 -86.5594 198° South 237 273 5,000 -1,320 Descending Memphis Center
06:35PM 36.0542 -86.5833 198° South 225 259 3,400 -1,260 Descending Memphis Center
06:36PM 36.0128 -86.6272 221° Southwest 218 251 2,400 -540 Descending Memphis Center
06:37PM 36.0214 -86.7036 278° West 193 222 2,400 -300 Level Memphis Center
06:38PM 36.0656 -86.7078 356° North 186 214 1,800 -720 Descending Memphis Center
06:39PM 36.1028 -86.6925 18° North 157 181 1,000 -540 Descending Memphis Center
06:40PM 36.1347 -86.6803 17° North 151 174 700 -300 Descending Memphis Center